createdAt,value
2019-05-20T00:00:56.342Z,16.80
2019-05-20T00:02:01.252Z,16.80
2019-05-20T00:03:06.023Z,16.80
2019-05-20T00:04:10.950Z,16.80
2019-05-20T00:05:15.666Z,16.80
2019-05-20T00:06:20.657Z,16.80
2019-05-20T00:07:25.304Z,16.80
2019-05-20T00:08:30.184Z,16.70
2019-05-20T00:09:35.232Z,16.70
2019-05-20T00:10:40.100Z,16.70
2019-05-20T00:11:45.466Z,16.70
2019-05-20T00:12:50.327Z,16.70
2019-05-20T00:13:55.023Z,16.70
2019-05-20T00:14:59.892Z,16.70
2019-05-20T00:16:04.760Z,16.70
2019-05-20T00:17:09.604Z,16.70
2019-05-20T00:18:14.413Z,16.70
2019-05-20T00:19:19.525Z,16.70
2019-05-20T00:20:24.323Z,16.70
2019-05-20T00:21:29.179Z,16.70
2019-05-20T00:22:33.965Z,16.70
2019-05-20T00:23:39.022Z,16.70
2019-05-20T00:24:43.692Z,16.70
2019-05-20T00:25:48.541Z,16.70
2019-05-20T00:26:53.260Z,16.70
2019-05-20T00:27:58.303Z,16.70
2019-05-20T00:29:02.962Z,16.70
2019-05-20T00:30:09.356Z,16.70
2019-05-20T00:31:14.034Z,16.70
2019-05-20T00:32:18.883Z,16.70
2019-05-20T00:33:23.518Z,16.60
2019-05-20T00:34:35.224Z,16.70
2019-05-20T00:35:35.746Z,16.60
2019-05-20T00:36:40.651Z,16.60
2019-05-20T00:37:45.467Z,16.70
2019-05-20T00:39:08.049Z,16.60
2019-05-20T00:40:13.172Z,16.60
2019-05-20T00:41:18.202Z,16.70
2019-05-20T00:42:22.826Z,16.60
2019-05-20T00:43:27.896Z,16.60
2019-05-20T00:44:32.506Z,16.60
2019-05-20T00:45:37.512Z,16.60
2019-05-20T00:46:42.174Z,16.60
2019-05-20T00:47:47.292Z,16.60
2019-05-20T00:48:51.782Z,16.60
2019-05-20T00:49:56.796Z,16.60
2019-05-20T00:51:01.397Z,16.60
2019-05-20T00:52:06.515Z,16.50
2019-05-20T00:53:11.051Z,16.50
2019-05-20T00:54:16.155Z,16.50
2019-05-20T00:55:26.613Z,16.50
2019-05-20T00:56:31.974Z,16.50
2019-05-20T00:57:36.819Z,16.50
2019-05-20T00:58:42.010Z,16.50
2019-05-20T00:59:46.531Z,16.50
2019-05-20T01:00:51.832Z,16.40
2019-05-20T01:01:57.079Z,16.50
2019-05-20T01:03:02.155Z,16.40
2019-05-20T01:04:06.633Z,16.40
2019-05-20T01:05:11.733Z,16.40
2019-05-20T01:06:16.276Z,16.40
2019-05-20T01:07:21.386Z,16.40
2019-05-20T01:08:25.891Z,16.40
2019-05-20T01:09:31.033Z,16.40
2019-05-20T01:10:35.505Z,16.30
2019-05-20T01:11:40.736Z,16.30
2019-05-20T01:12:45.216Z,16.40
2019-05-20T01:13:50.309Z,16.30
2019-05-20T01:14:54.785Z,16.30
2019-05-20T01:15:59.824Z,16.30
2019-05-20T01:17:04.454Z,16.30
2019-05-20T01:18:09.496Z,16.30
2019-05-20T01:19:14.138Z,16.30
2019-05-20T01:20:19.319Z,16.30
2019-05-20T01:21:23.815Z,16.30
2019-05-20T01:22:28.955Z,16.30
2019-05-20T01:23:33.440Z,16.30
2019-05-20T01:24:38.466Z,16.30
2019-05-20T01:25:43.016Z,16.30
2019-05-20T01:26:48.030Z,16.30
2019-05-20T01:27:52.576Z,16.30
2019-05-20T01:28:57.786Z,16.30
2019-05-20T01:30:02.447Z,16.20
2019-05-20T01:31:07.558Z,16.20
2019-05-20T01:32:12.025Z,16.20
2019-05-20T01:33:17.156Z,16.20
2019-05-20T01:34:21.701Z,16.20
2019-05-20T01:35:26.771Z,16.20
2019-05-20T01:36:31.499Z,16.20
2019-05-20T01:37:36.647Z,16.20
2019-05-20T01:38:41.129Z,16.20
2019-05-20T01:39:46.298Z,16.20
2019-05-20T01:40:50.796Z,16.20
2019-05-20T01:41:55.840Z,16.20
2019-05-20T01:43:00.450Z,16.20
2019-05-20T01:44:05.550Z,16.20
2019-05-20T01:45:10.651Z,16.20
2019-05-20T01:46:15.682Z,16.20
2019-05-20T01:47:20.169Z,16.20
2019-05-20T01:48:25.189Z,16.20
2019-05-20T01:49:29.667Z,16.20
2019-05-20T01:50:34.704Z,16.30
2019-05-20T01:51:39.283Z,16.30
2019-05-20T01:52:44.331Z,16.30
2019-05-20T01:53:48.803Z,16.30
2019-05-20T01:54:53.845Z,16.30
2019-05-20T01:55:58.600Z,16.20
2019-05-20T01:57:03.641Z,16.30
2019-05-20T01:58:08.143Z,16.30
2019-05-20T01:59:13.373Z,16.30
2019-05-20T02:00:18.073Z,16.20
2019-05-20T02:01:23.113Z,16.20
2019-05-20T02:02:27.640Z,16.20
2019-05-20T02:03:32.769Z,16.20
2019-05-20T02:04:37.267Z,16.20
2019-05-20T02:05:42.373Z,16.20
2019-05-20T02:06:47.067Z,16.20
2019-05-20T02:07:52.216Z,16.20
2019-05-20T02:08:56.966Z,16.20
2019-05-20T02:10:02.003Z,16.20
2019-05-20T02:11:06.656Z,16.20
2019-05-20T02:12:11.704Z,16.20
2019-05-20T02:13:16.303Z,16.20
2019-05-20T02:14:22.479Z,16.20
2019-05-20T02:15:31.635Z,16.20
2019-05-20T02:16:36.924Z,16.10
2019-05-20T02:17:41.421Z,16.20
2019-05-20T02:18:46.526Z,16.20
2019-05-20T02:19:51.143Z,16.10
2019-05-20T02:20:56.162Z,16.10
2019-05-20T02:22:00.690Z,16.10
2019-05-20T02:23:15.424Z,16.10
2019-05-20T02:24:20.037Z,16.10
2019-05-20T02:25:25.295Z,16.10
2019-05-20T02:26:29.754Z,16.10
2019-05-20T02:27:34.920Z,16.10
2019-05-20T02:28:39.393Z,16.10
2019-05-20T02:29:44.414Z,16.10
2019-05-20T02:30:48.905Z,16.10
2019-05-20T02:31:53.991Z,16.10
2019-05-20T02:32:58.645Z,16.10
2019-05-20T02:34:03.727Z,16.10
2019-05-20T02:35:08.507Z,16.10
2019-05-20T02:36:13.523Z,16.10
2019-05-20T02:37:17.983Z,16.10
2019-05-20T02:38:23.005Z,16.10
2019-05-20T02:39:27.524Z,16.10
2019-05-20T02:40:32.770Z,16.10
2019-05-20T02:41:37.601Z,16.00
2019-05-20T02:42:42.676Z,16.00
2019-05-20T02:43:47.562Z,16.00
2019-05-20T02:44:52.764Z,16.00
2019-05-20T02:45:57.344Z,16.00
2019-05-20T02:47:02.621Z,16.00
2019-05-20T02:48:07.127Z,16.00
2019-05-20T02:49:12.252Z,16.00
2019-05-20T02:50:16.983Z,16.00
2019-05-20T02:51:23.092Z,16.00
2019-05-20T02:52:27.631Z,16.00
2019-05-20T02:53:32.773Z,16.00
2019-05-20T02:54:37.573Z,16.00
2019-05-20T02:55:42.667Z,16.00
2019-05-20T02:56:47.253Z,16.00
2019-05-20T02:57:52.368Z,16.00
2019-05-20T02:58:56.855Z,16.00
2019-05-20T03:00:01.954Z,16.00
2019-05-20T03:01:06.501Z,16.00
2019-05-20T03:02:11.602Z,16.00
2019-05-20T03:03:16.071Z,16.00
2019-05-20T03:04:21.255Z,16.00
2019-05-20T03:05:25.720Z,16.00
2019-05-20T03:06:30.908Z,16.00
2019-05-20T03:07:35.411Z,16.00
2019-05-20T03:08:40.486Z,16.00
2019-05-20T03:09:45.068Z,16.00
2019-05-20T03:10:50.446Z,16.00
2019-05-20T03:11:55.027Z,16.00
2019-05-20T03:13:00.049Z,16.00
2019-05-20T03:14:04.971Z,16.00
2019-05-20T03:15:10.376Z,16.00
2019-05-20T03:16:15.747Z,16.00
2019-05-20T03:17:21.119Z,16.00
2019-05-20T03:18:25.615Z,16.00
2019-05-20T03:19:30.796Z,16.00
2019-05-20T03:20:35.411Z,16.00
2019-05-20T03:21:40.525Z,16.00
2019-05-20T03:22:45.050Z,16.00
2019-05-20T03:23:50.085Z,16.00
2019-05-20T03:24:54.689Z,16.00
2019-05-20T03:25:59.772Z,16.00
2019-05-20T03:27:04.262Z,16.00
2019-05-20T03:28:09.714Z,16.00
2019-05-20T03:29:14.376Z,16.00
2019-05-20T03:30:19.634Z,16.00
2019-05-20T03:31:24.317Z,16.00
2019-05-20T03:32:29.417Z,16.00
2019-05-20T03:33:34.023Z,16.00
2019-05-20T03:34:47.797Z,16.00
2019-05-20T03:35:45.477Z,16.00
2019-05-20T03:36:50.584Z,16.00
2019-05-20T03:37:55.208Z,16.00
2019-05-20T03:39:00.298Z,16.00
2019-05-20T03:40:06.737Z,16.00
2019-05-20T03:41:11.777Z,16.10
2019-05-20T03:42:16.317Z,16.00
2019-05-20T03:43:22.006Z,16.10
2019-05-20T03:44:26.552Z,16.10
2019-05-20T03:45:31.784Z,16.10
2019-05-20T03:46:36.256Z,16.10
2019-05-20T03:47:41.452Z,16.10
2019-05-20T03:48:45.948Z,16.10
2019-05-20T03:49:50.976Z,16.10
2019-05-20T03:50:55.461Z,16.10
2019-05-20T03:52:00.565Z,16.10
2019-05-20T03:53:05.217Z,16.10
2019-05-20T03:54:10.335Z,16.10
2019-05-20T03:55:15.346Z,16.10
2019-05-20T03:56:20.376Z,16.10
2019-05-20T03:57:24.843Z,16.10
2019-05-20T03:58:30.018Z,16.10
2019-05-20T03:59:34.522Z,16.10
2019-05-20T04:00:44.572Z,16.10
2019-05-20T04:01:49.310Z,16.10
2019-05-20T04:02:54.345Z,16.10
2019-05-20T04:03:58.835Z,16.10
2019-05-20T04:05:04.416Z,16.10
2019-05-20T04:06:09.483Z,16.10
2019-05-20T04:07:14.524Z,16.10
2019-05-20T04:08:19.091Z,16.10
2019-05-20T04:09:24.295Z,16.10
2019-05-20T04:10:28.767Z,16.20
2019-05-20T04:11:33.931Z,16.20
2019-05-20T04:12:38.437Z,16.20
2019-05-20T04:13:43.543Z,16.20
2019-05-20T04:14:48.034Z,16.20
2019-05-20T04:15:53.053Z,16.20
2019-05-20T04:16:57.555Z,16.20
2019-05-20T04:18:02.761Z,16.30
2019-05-20T04:19:07.337Z,16.30
2019-05-20T04:20:12.512Z,16.30
2019-05-20T04:21:17.006Z,16.30
2019-05-20T04:22:22.089Z,16.40
2019-05-20T04:23:26.664Z,16.40
2019-05-20T04:24:32.051Z,16.40
2019-05-20T04:25:36.560Z,16.50
2019-05-20T04:26:41.595Z,16.40
2019-05-20T04:27:46.080Z,16.40
2019-05-20T04:28:51.198Z,16.50
2019-05-20T04:29:57.231Z,16.50
2019-05-20T04:31:02.532Z,16.50
2019-05-20T04:32:07.071Z,16.50
2019-05-20T04:33:12.430Z,16.50
2019-05-20T04:34:17.462Z,16.50
2019-05-20T04:35:23.614Z,16.40
2019-05-20T04:36:28.460Z,16.40
2019-05-20T04:37:34.151Z,16.40
2019-05-20T04:38:38.654Z,16.40
2019-05-20T04:39:43.679Z,16.40
2019-05-20T04:40:48.132Z,16.40
2019-05-20T04:41:53.250Z,16.40
2019-05-20T04:42:57.708Z,16.30
2019-05-20T04:44:02.886Z,16.30
2019-05-20T04:45:09.542Z,16.20
2019-05-20T04:46:14.591Z,16.20
2019-05-20T04:47:19.260Z,16.20
2019-05-20T04:48:24.310Z,16.10
2019-05-20T04:49:28.792Z,16.10
2019-05-20T04:50:33.823Z,16.00
2019-05-20T04:51:38.385Z,16.00
2019-05-20T04:52:43.533Z,16.00
2019-05-20T04:53:48.161Z,15.90
2019-05-20T04:54:53.188Z,15.90
2019-05-20T04:55:57.655Z,15.90
2019-05-20T04:57:02.677Z,15.80
2019-05-20T04:58:07.152Z,15.80
2019-05-20T04:59:12.175Z,15.80
2019-05-20T05:00:22.269Z,15.80
2019-05-20T05:01:27.278Z,15.70
2019-05-20T05:02:31.760Z,15.70
2019-05-20T05:03:36.932Z,15.70
2019-05-20T05:04:41.740Z,15.70
2019-05-20T05:05:47.148Z,15.70
2019-05-20T05:06:51.792Z,15.70
2019-05-20T05:07:57.136Z,15.70
2019-05-20T05:09:01.625Z,15.70
2019-05-20T05:10:09.186Z,15.70
2019-05-20T05:11:13.725Z,15.70
2019-05-20T05:12:18.894Z,15.70
2019-05-20T05:13:23.891Z,15.70
2019-05-20T05:14:28.925Z,15.70
2019-05-20T05:15:33.412Z,15.70
2019-05-20T05:16:38.503Z,15.70
2019-05-20T05:17:43.121Z,15.70
2019-05-20T05:18:48.297Z,15.70
2019-05-20T05:19:53.017Z,15.70
2019-05-20T05:20:58.157Z,15.70
2019-05-20T05:22:02.738Z,15.70
2019-05-20T05:23:08.006Z,15.70
2019-05-20T05:24:12.638Z,15.70
2019-05-20T05:25:17.795Z,15.70
2019-05-20T05:26:22.381Z,15.70
2019-05-20T05:27:27.421Z,15.80
2019-05-20T05:28:32.100Z,15.80
2019-05-20T05:29:37.201Z,15.80
2019-05-20T05:30:42.616Z,15.70
2019-05-20T05:31:47.815Z,15.80
2019-05-20T05:32:52.284Z,15.80
2019-05-20T05:33:57.499Z,15.80
2019-05-20T05:35:01.967Z,15.80
2019-05-20T05:36:07.076Z,15.80
2019-05-20T05:37:11.564Z,15.80
2019-05-20T05:38:16.672Z,15.80
2019-05-20T05:39:21.157Z,15.80
2019-05-20T05:40:31.235Z,15.80
2019-05-20T05:41:35.771Z,15.80
2019-05-20T05:42:40.792Z,15.80
2019-05-20T05:43:45.270Z,15.80
2019-05-20T05:44:50.300Z,15.80
2019-05-20T05:45:54.814Z,15.80
2019-05-20T05:46:59.939Z,15.80
2019-05-20T05:48:04.680Z,15.80
2019-05-20T05:49:09.746Z,15.90
2019-05-20T05:50:14.574Z,15.90
2019-05-20T05:51:19.669Z,15.90
2019-05-20T05:52:24.278Z,15.90
2019-05-20T05:53:29.299Z,15.90
2019-05-20T05:54:34.014Z,15.90
2019-05-20T05:55:39.348Z,15.90
2019-05-20T05:56:43.833Z,15.90
2019-05-20T05:57:49.061Z,15.90
2019-05-20T05:58:53.533Z,15.90
2019-05-20T05:59:58.651Z,15.90
2019-05-20T06:01:03.112Z,15.90
2019-05-20T06:02:08.416Z,15.90
2019-05-20T06:03:12.998Z,15.90
2019-05-20T06:04:18.150Z,15.90
2019-05-20T06:05:22.741Z,15.90
2019-05-20T06:06:27.764Z,15.90
2019-05-20T06:07:32.245Z,15.90
2019-05-20T06:08:37.268Z,15.90
2019-05-20T06:09:41.994Z,15.90
2019-05-20T06:10:47.013Z,15.90
2019-05-20T06:11:51.516Z,15.90
2019-05-20T06:12:56.801Z,15.90
2019-05-20T06:14:01.282Z,16.00
2019-05-20T06:15:07.621Z,16.00
2019-05-20T06:16:12.171Z,16.00
2019-05-20T06:17:17.237Z,16.00
2019-05-20T06:18:21.793Z,16.00
2019-05-20T06:19:26.912Z,16.00
2019-05-20T06:20:31.414Z,16.00
2019-05-20T06:21:36.527Z,16.00
2019-05-20T06:22:41.011Z,16.00
2019-05-20T06:23:46.031Z,16.00
2019-05-20T06:24:50.875Z,16.00
2019-05-20T06:25:56.451Z,16.00
2019-05-20T06:27:01.039Z,16.00
2019-05-20T06:28:06.217Z,16.00
2019-05-20T06:29:10.684Z,16.00
2019-05-20T06:30:19.108Z,16.00
2019-05-20T06:31:23.666Z,16.00
2019-05-20T06:32:28.676Z,16.00
2019-05-20T06:33:33.174Z,16.00
2019-05-20T06:34:38.406Z,16.00
2019-05-20T06:35:42.941Z,15.90
2019-05-20T06:36:49.222Z,16.00
2019-05-20T06:37:58.350Z,15.90
2019-05-20T06:39:12.968Z,15.90
2019-05-20T06:40:18.150Z,15.90
2019-05-20T06:41:23.361Z,15.90
2019-05-20T06:42:28.093Z,15.90
2019-05-20T06:43:33.176Z,15.90
2019-05-20T06:44:51.815Z,15.90
2019-05-20T06:45:44.699Z,15.90
2019-05-20T06:46:49.226Z,15.90
2019-05-20T06:47:54.311Z,15.90
2019-05-20T06:48:58.774Z,15.90
2019-05-20T06:50:05.818Z,15.90
2019-05-20T06:51:10.323Z,15.90
2019-05-20T06:52:15.457Z,15.90
2019-05-20T06:53:19.945Z,15.90
2019-05-20T06:54:25.047Z,15.90
2019-05-20T06:55:29.602Z,15.90
2019-05-20T06:56:34.952Z,15.90
2019-05-20T06:57:39.780Z,15.90
2019-05-20T06:58:44.823Z,15.90
2019-05-20T06:59:49.304Z,16.00
2019-05-20T07:00:54.508Z,16.00
2019-05-20T07:01:59.195Z,16.00
2019-05-20T07:03:04.958Z,16.00
2019-05-20T07:04:09.482Z,16.00
2019-05-20T07:05:14.925Z,16.10
2019-05-20T07:06:19.426Z,16.10
2019-05-20T07:07:24.526Z,16.10
2019-05-20T07:08:29.190Z,16.10
2019-05-20T07:09:34.262Z,16.10
2019-05-20T07:10:38.814Z,16.10
2019-05-20T07:11:52.370Z,16.10
2019-05-20T07:12:50.044Z,16.10
2019-05-20T07:13:55.111Z,16.10
2019-05-20T07:14:59.593Z,16.10
2019-05-20T07:16:04.706Z,16.10
2019-05-20T07:17:09.242Z,16.10
2019-05-20T07:18:14.265Z,16.10
2019-05-20T07:19:18.775Z,16.10
2019-05-20T07:20:24.413Z,16.10
2019-05-20T07:21:28.948Z,16.00
2019-05-20T07:22:34.094Z,16.00
2019-05-20T07:23:38.618Z,16.00
2019-05-20T07:24:43.677Z,16.00
2019-05-20T07:25:48.261Z,16.00
2019-05-20T07:26:53.472Z,16.00
2019-05-20T07:27:57.969Z,16.00
2019-05-20T07:29:03.032Z,16.00
2019-05-20T07:30:08.186Z,16.00
2019-05-20T07:31:13.321Z,16.00
2019-05-20T07:32:17.867Z,16.00
2019-05-20T07:33:22.900Z,16.00
2019-05-20T07:34:27.452Z,16.00
2019-05-20T07:35:32.489Z,16.00
2019-05-20T07:36:36.967Z,16.00
2019-05-20T07:37:41.989Z,16.10
2019-05-20T07:38:46.471Z,16.10
2019-05-20T07:39:52.136Z,16.10
2019-05-20T07:40:56.697Z,16.10
2019-05-20T07:42:01.773Z,16.10
2019-05-20T07:43:06.834Z,16.10
2019-05-20T07:44:11.918Z,16.10
2019-05-20T07:45:16.452Z,16.20
2019-05-20T07:46:21.975Z,16.20
2019-05-20T07:47:27.150Z,16.20
2019-05-20T07:48:33.308Z,16.20
2019-05-20T07:49:38.400Z,16.20
2019-05-20T07:50:44.584Z,16.20
2019-05-20T07:51:49.951Z,16.20
2019-05-20T07:52:55.110Z,16.30
2019-05-20T07:54:00.964Z,16.30
2019-05-20T07:55:07.517Z,16.30
2019-05-20T07:56:15.097Z,16.30
2019-05-20T07:57:22.389Z,16.30
2019-05-20T07:58:29.351Z,16.30
2019-05-20T07:59:36.045Z,16.30
2019-05-20T08:00:42.030Z,16.30
2019-05-20T08:01:48.817Z,16.30
2019-05-20T08:02:54.501Z,16.40
2019-05-20T08:04:01.145Z,16.40
2019-05-20T08:05:09.213Z,16.40
2019-05-20T08:06:15.104Z,16.40
2019-05-20T08:07:27.857Z,16.40
2019-05-20T08:08:26.475Z,16.40
2019-05-20T08:09:30.929Z,16.40
2019-05-20T08:10:36.034Z,16.40
2019-05-20T08:11:40.527Z,16.40
2019-05-20T08:12:45.887Z,16.40
2019-05-20T08:13:50.360Z,16.40
2019-05-20T08:14:55.488Z,16.50
2019-05-20T08:15:59.977Z,16.50
2019-05-20T08:17:05.072Z,16.50
2019-05-20T08:18:09.651Z,16.50
2019-05-20T08:19:14.834Z,16.50
2019-05-20T08:20:19.388Z,16.50
2019-05-20T08:21:25.040Z,16.50
2019-05-20T08:22:29.607Z,16.60
2019-05-20T08:23:34.985Z,16.60
2019-05-20T08:24:39.484Z,16.60
2019-05-20T08:25:44.549Z,16.60
2019-05-20T08:26:49.217Z,16.60
2019-05-20T08:27:54.236Z,16.60
2019-05-20T08:28:58.699Z,16.70
2019-05-20T08:30:05.154Z,16.70
2019-05-20T08:31:09.618Z,16.70
2019-05-20T08:32:14.726Z,16.70
2019-05-20T08:33:19.178Z,16.70
2019-05-20T08:34:24.210Z,16.70
2019-05-20T08:35:28.700Z,16.70
2019-05-20T08:36:33.878Z,16.80
2019-05-20T08:37:45.362Z,16.80
2019-05-20T08:38:45.292Z,16.80
2019-05-20T08:39:49.779Z,16.80
2019-05-20T08:40:54.906Z,16.80
2019-05-20T08:41:59.386Z,16.80
2019-05-20T08:43:04.489Z,16.80
2019-05-20T08:44:09.447Z,16.80
2019-05-20T08:45:14.768Z,16.80
2019-05-20T08:46:19.341Z,16.80
2019-05-20T08:47:24.383Z,16.90
2019-05-20T08:48:29.121Z,16.90
2019-05-20T08:49:34.765Z,16.90
2019-05-20T08:50:39.527Z,16.90
2019-05-20T08:51:44.621Z,16.90
2019-05-20T08:52:49.184Z,16.90
2019-05-20T08:53:54.236Z,16.90
2019-05-20T08:54:58.779Z,16.90
2019-05-20T08:56:03.911Z,16.90
2019-05-20T08:57:08.817Z,16.90
2019-05-20T08:58:13.926Z,16.90
2019-05-20T08:59:18.725Z,16.90
2019-05-20T09:00:24.648Z,16.90
2019-05-20T09:01:29.632Z,16.90
2019-05-20T09:02:34.806Z,17.00
2019-05-20T09:03:39.532Z,17.00
2019-05-20T09:04:44.552Z,17.00
2019-05-20T09:05:49.272Z,17.00
2019-05-20T09:06:54.310Z,17.00
2019-05-20T09:08:03.781Z,17.00
2019-05-20T09:09:07.392Z,17.00
2019-05-20T09:10:12.774Z,17.00
2019-05-20T09:11:17.822Z,17.10
2019-05-20T09:12:22.313Z,17.10
2019-05-20T09:13:27.393Z,17.00
2019-05-20T09:14:31.851Z,17.10
2019-05-20T09:15:36.880Z,17.10
2019-05-20T09:16:41.426Z,17.10
2019-05-20T09:17:46.477Z,17.10
2019-05-20T09:18:51.026Z,17.10
2019-05-20T09:19:56.094Z,17.10
2019-05-20T09:21:00.590Z,17.20
2019-05-20T09:22:05.637Z,17.20
2019-05-20T09:23:10.109Z,17.10
2019-05-20T09:24:18.609Z,17.20
2019-05-20T09:25:29.639Z,17.20
2019-05-20T09:26:34.960Z,17.20
2019-05-20T09:27:39.513Z,17.20
2019-05-20T09:28:44.586Z,17.20
2019-05-20T09:29:49.057Z,17.20
2019-05-20T09:30:54.519Z,17.20
2019-05-20T09:31:59.142Z,17.20
2019-05-20T09:33:04.552Z,17.20
2019-05-20T09:34:09.183Z,17.20
2019-05-20T09:35:14.603Z,17.20
2019-05-20T09:36:19.145Z,17.20
2019-05-20T09:37:24.173Z,17.20
2019-05-20T09:38:28.673Z,17.20
2019-05-20T09:39:34.059Z,17.30
2019-05-20T09:40:44.060Z,17.20
2019-05-20T09:41:49.226Z,17.20
2019-05-20T09:42:53.684Z,17.20
2019-05-20T09:43:58.809Z,17.30
2019-05-20T09:45:04.609Z,17.20
2019-05-20T09:46:09.696Z,17.20
2019-05-20T09:47:14.395Z,17.20
2019-05-20T09:48:19.446Z,17.20
2019-05-20T09:49:23.966Z,17.20
2019-05-20T09:50:29.317Z,17.20
2019-05-20T09:51:33.805Z,17.20
2019-05-20T09:52:38.891Z,17.20
2019-05-20T09:53:43.428Z,17.20
2019-05-20T09:54:48.508Z,17.20
2019-05-20T09:55:52.970Z,17.20
2019-05-20T09:56:58.062Z,17.20
2019-05-20T09:58:02.828Z,17.20
2019-05-20T09:59:07.888Z,17.20
2019-05-20T10:00:13.123Z,17.20
2019-05-20T10:01:18.195Z,17.20
2019-05-20T10:02:22.757Z,17.20
2019-05-20T10:03:27.774Z,17.20
2019-05-20T10:04:32.246Z,17.20
2019-05-20T10:05:37.983Z,17.20
2019-05-20T10:06:42.580Z,17.20
2019-05-20T10:07:47.621Z,17.20
2019-05-20T10:08:52.161Z,17.20
2019-05-20T10:09:57.184Z,17.20
2019-05-20T10:11:01.765Z,17.30
2019-05-20T10:12:06.854Z,17.30
2019-05-20T10:13:11.469Z,17.30
2019-05-20T10:14:16.521Z,17.30
2019-05-20T10:15:22.431Z,17.30
2019-05-20T10:16:27.527Z,17.30
2019-05-20T10:17:32.007Z,17.40
2019-05-20T10:18:39.008Z,17.40
2019-05-20T10:19:43.185Z,17.40
2019-05-20T10:20:48.224Z,17.40
2019-05-20T10:21:52.779Z,17.40
2019-05-20T10:22:57.888Z,17.40
2019-05-20T10:24:02.368Z,17.40
2019-05-20T10:25:08.914Z,17.50
2019-05-20T10:26:13.399Z,17.50
2019-05-20T10:27:18.437Z,17.50
2019-05-20T10:28:22.929Z,17.60
2019-05-20T10:29:27.952Z,17.60
2019-05-20T10:30:32.444Z,17.60
2019-05-20T10:31:37.599Z,17.60
2019-05-20T10:32:42.137Z,17.70
2019-05-20T10:33:47.170Z,17.70
2019-05-20T10:34:51.651Z,17.70
2019-05-20T10:35:56.726Z,17.70
2019-05-20T10:37:01.289Z,17.80
2019-05-20T10:38:06.658Z,17.80
2019-05-20T10:39:11.151Z,17.80
2019-05-20T10:40:16.359Z,17.90
2019-05-20T10:41:20.824Z,17.90
2019-05-20T10:42:25.879Z,17.90
2019-05-20T10:43:30.805Z,17.90
2019-05-20T10:44:36.070Z,18.00
2019-05-20T10:45:40.580Z,18.00
2019-05-20T10:46:45.649Z,18.00
2019-05-20T10:47:50.118Z,18.00
2019-05-20T10:48:55.146Z,18.00
2019-05-20T10:49:59.635Z,18.00
2019-05-20T10:51:04.961Z,18.00
2019-05-20T10:52:09.415Z,18.00
2019-05-20T10:53:14.521Z,18.00
2019-05-20T10:54:19.044Z,18.00
2019-05-20T10:55:24.828Z,18.10
2019-05-20T10:56:29.310Z,18.10
2019-05-20T10:57:34.402Z,18.10
2019-05-20T10:58:38.879Z,18.10
2019-05-20T10:59:44.008Z,18.10
2019-05-20T11:01:01.661Z,18.10
2019-05-20T11:01:55.303Z,18.20
2019-05-20T11:02:59.810Z,18.20
2019-05-20T11:04:04.832Z,18.20
2019-05-20T11:05:09.463Z,18.20
2019-05-20T11:06:14.490Z,18.30
2019-05-20T11:07:18.967Z,18.30
2019-05-20T11:08:23.989Z,18.30
2019-05-20T11:09:28.449Z,18.40
2019-05-20T11:10:33.751Z,18.40
2019-05-20T11:11:39.569Z,18.40
2019-05-20T11:12:44.679Z,18.40
2019-05-20T11:13:49.201Z,18.50
2019-05-20T11:14:54.234Z,18.50
2019-05-20T11:15:58.814Z,18.50
2019-05-20T11:17:03.863Z,18.50
2019-05-20T11:18:08.352Z,18.60
2019-05-20T11:19:13.353Z,18.60
2019-05-20T11:20:18.107Z,18.60
2019-05-20T11:21:23.193Z,18.70
2019-05-20T11:22:27.677Z,18.70
2019-05-20T11:23:32.784Z,18.80
2019-05-20T11:24:37.248Z,18.80
2019-05-20T11:25:42.286Z,18.80
2019-05-20T11:26:46.836Z,18.90
2019-05-20T11:27:51.887Z,18.90
2019-05-20T11:28:56.379Z,18.90
2019-05-20T11:30:01.483Z,19.00
2019-05-20T11:31:05.988Z,19.00
2019-05-20T11:32:11.132Z,19.00
2019-05-20T11:33:15.603Z,19.00
2019-05-20T11:34:20.666Z,19.10
2019-05-20T11:35:25.186Z,19.10
2019-05-20T11:36:30.605Z,19.10
2019-05-20T11:37:35.211Z,19.20
2019-05-20T11:38:40.247Z,19.20
2019-05-20T11:39:44.729Z,19.20
2019-05-20T11:40:49.798Z,19.20
2019-05-20T11:41:54.712Z,19.30
2019-05-20T11:42:59.846Z,19.30
2019-05-20T11:44:04.466Z,19.20
2019-05-20T11:45:11.552Z,19.20
2019-05-20T11:46:16.253Z,19.30
2019-05-20T11:47:21.297Z,19.30
2019-05-20T11:48:25.776Z,19.30
2019-05-20T11:49:30.787Z,19.20
2019-05-20T11:50:35.245Z,19.20
2019-05-20T11:51:40.294Z,19.20
2019-05-20T11:52:44.892Z,19.20
2019-05-20T11:53:50.023Z,19.20
2019-05-20T11:54:54.502Z,19.20
2019-05-20T11:55:59.514Z,19.10
2019-05-20T11:57:04.346Z,19.10
2019-05-20T11:58:15.837Z,19.10
2019-05-20T11:59:15.548Z,19.00
2019-05-20T12:00:20.925Z,19.00
2019-05-20T12:01:25.598Z,19.00
2019-05-20T12:02:30.644Z,19.00
2019-05-20T12:03:35.153Z,18.90
2019-05-20T12:04:40.236Z,18.90
2019-05-20T12:05:44.743Z,18.80
2019-05-20T12:06:49.919Z,18.80
2019-05-20T12:07:54.398Z,18.80
2019-05-20T12:08:59.552Z,18.80
2019-05-20T12:10:08.673Z,18.70
2019-05-20T12:11:13.703Z,18.70
2019-05-20T12:12:18.212Z,18.60
2019-05-20T12:13:23.294Z,18.60
2019-05-20T12:14:28.058Z,18.60
2019-05-20T12:15:33.240Z,18.50
2019-05-20T12:16:37.762Z,18.40
2019-05-20T12:17:42.793Z,18.40
2019-05-20T12:18:47.285Z,18.30
2019-05-20T12:19:52.319Z,18.30
2019-05-20T12:20:56.793Z,18.20
2019-05-20T12:22:01.936Z,18.20
2019-05-20T12:23:06.431Z,18.20
2019-05-20T12:24:11.452Z,18.10
2019-05-20T12:25:16.512Z,18.10
2019-05-20T12:26:22.802Z,18.00
2019-05-20T12:27:27.397Z,18.00
2019-05-20T12:28:32.447Z,18.00
2019-05-20T12:29:36.913Z,17.90
2019-05-20T12:30:41.971Z,17.90
2019-05-20T12:31:46.465Z,17.80
2019-05-20T12:33:15.606Z,17.80
2019-05-20T12:33:57.840Z,17.80
2019-05-20T12:35:03.162Z,17.80
2019-05-20T12:36:07.705Z,17.70
2019-05-20T12:37:12.755Z,17.70
2019-05-20T12:38:17.219Z,17.70
2019-05-20T12:39:22.390Z,17.60
2019-05-20T12:40:26.994Z,17.60
2019-05-20T12:41:32.281Z,17.60
2019-05-20T12:42:37.124Z,17.60
2019-05-20T12:43:45.061Z,17.50
2019-05-20T12:44:48.588Z,17.50
2019-05-20T12:45:53.694Z,17.50
2019-05-20T12:46:58.164Z,17.50
2019-05-20T12:48:03.243Z,17.40
2019-05-20T12:49:07.964Z,17.40
2019-05-20T12:50:13.673Z,17.30
2019-05-20T12:51:18.199Z,17.30
2019-05-20T12:52:23.235Z,17.30
2019-05-20T12:53:27.723Z,17.20
2019-05-20T12:54:33.116Z,17.20
2019-05-20T12:55:37.692Z,17.20
2019-05-20T12:56:42.718Z,17.20
2019-05-20T12:57:47.213Z,17.10
2019-05-20T12:58:52.372Z,17.10
2019-05-20T12:59:56.843Z,17.10
2019-05-20T13:01:01.959Z,17.00
2019-05-20T13:02:06.478Z,17.00
2019-05-20T13:03:11.510Z,17.00
2019-05-20T13:04:16.022Z,16.90
2019-05-20T13:05:21.055Z,16.90
2019-05-20T13:06:25.530Z,16.80
2019-05-20T13:07:30.711Z,16.80
2019-05-20T13:08:35.173Z,16.80
2019-05-20T13:09:40.231Z,16.80
2019-05-20T13:10:44.724Z,16.70
2019-05-20T13:11:49.740Z,16.70
2019-05-20T13:12:54.225Z,16.70
2019-05-20T13:13:59.592Z,16.60
2019-05-20T13:15:06.311Z,16.60
2019-05-20T13:16:11.501Z,16.60
2019-05-20T13:17:16.126Z,16.50
2019-05-20T13:18:21.154Z,16.50
2019-05-20T13:19:25.646Z,16.50
2019-05-20T13:20:30.737Z,16.40
2019-05-20T13:21:35.199Z,16.40
2019-05-20T13:22:40.247Z,16.40
2019-05-20T13:23:48.518Z,16.30
2019-05-20T13:24:51.796Z,16.30
2019-05-20T13:25:56.261Z,16.20
2019-05-20T13:27:01.326Z,16.20
2019-05-20T13:28:05.865Z,16.20
2019-05-20T13:29:10.910Z,16.20
2019-05-20T13:30:15.821Z,16.10
2019-05-20T13:31:20.840Z,16.10
2019-05-20T13:32:25.318Z,16.10
2019-05-20T13:33:30.352Z,16.00
2019-05-20T13:34:34.917Z,16.00
2019-05-20T13:35:40.098Z,16.00
2019-05-20T13:36:44.688Z,16.00
2019-05-20T13:37:49.774Z,16.00
2019-05-20T13:38:54.244Z,16.00
2019-05-20T13:40:02.905Z,16.00
2019-05-20T13:41:06.104Z,16.00
2019-05-20T13:42:11.230Z,16.00
2019-05-20T13:43:15.688Z,16.00
2019-05-20T13:44:20.716Z,16.00
2019-05-20T13:45:25.315Z,16.00
2019-05-20T13:46:30.407Z,16.00
2019-05-20T13:47:34.964Z,16.00
2019-05-20T13:48:40.005Z,16.00
2019-05-20T13:49:44.478Z,16.10
2019-05-20T13:50:49.520Z,16.10
2019-05-20T13:51:53.971Z,16.10
2019-05-20T13:52:59.038Z,16.10
2019-05-20T13:54:03.512Z,16.10
2019-05-20T13:55:09.251Z,16.10
2019-05-20T13:56:14.152Z,16.20
2019-05-20T13:57:19.196Z,16.10
2019-05-20T13:58:23.697Z,16.10